Time;durP1;ratioP1;P1;durP2;ratioP2;P2;SDS_P1;SDS_P2;PMS_P1;PMS_P2;Temp;Humidity;BMP_temperature;BMP_pressure;BME280_temperature;BME280_humidity;BME280_pressure;Samples;Min_cycle;Max_cycle;Signal;HPM_P1;HPM_P2
2022/03/28 00:01:55;;;;;;;;;;;;;;;6.57;100.00;102973.09;5095662;28;19920;-80
2022/03/28 00:04:22;;;;;;;;;;;;;;;6.55;100.00;102965.88;5096244;28;19923;-78
2022/03/28 00:06:48;;;;;;;;;;;;;;;6.53;100.00;102962.22;5112940;28;19920;-78
2022/03/28 00:09:13;;;;;;;;;;;;;;;6.43;100.00;102964.06;5079207;28;19977;-77
2022/03/28 00:11:39;;;;;;;;;;;;;;;6.42;100.00;102967.44;5078676;28;19986;-77
2022/03/28 00:14:06;;;;;;;;;;;;;;;6.38;100.00;102967.94;5095317;28;19923;-79
2022/03/28 00:16:32;;;;;;;;;;;;;;;6.38;100.00;102965.34;5095317;28;19928;-74
2022/03/28 00:18:59;;;;;;;;;;;;;;;6.34;100.00;102968.50;5112393;28;19923;-79
2022/03/28 00:21:25;;;;;;;;;;;;;;;6.35;100.00;102961.53;5095656;28;19969;-76
2022/03/28 00:23:52;;;;;;;;;;;;;;;6.31;100.00;102967.28;5094939;28;19920;-76
2022/03/28 00:26:19;;;;;;;;;;;;;;;6.27;100.00;102967.00;5095632;28;19916;-76
2022/03/28 00:28:44;;;;;;;;;;;;;;;6.23;100.00;102967.56;5077798;28;19924;-79
2022/03/28 00:31:13;;;;;;;;;;;;;;;6.23;100.00;102961.38;5077820;28;19927;-77
2022/03/28 00:33:38;;;;;;;;;;;;;;;6.19;100.00;102968.06;5095137;28;20027;-80
2022/03/28 00:36:05;;;;;;;;;;;;;;;6.16;100.00;102964.25;5094491;28;19980;-78
2022/03/28 00:38:31;;;;;;;;;;;;;;;6.09;100.00;102966.34;5113159;28;19943;-77
2022/03/28 00:40:56;;;;;;;;;;;;;;;6.06;100.00;102967.75;5095228;28;20287;-77
2022/03/28 00:43:22;;;;;;;;;;;;;;;6.05;100.00;102960.69;5095529;28;19916;-76
2022/03/28 00:45:48;;;;;;;;;;;;;;;6.02;100.00;102953.50;5112615;28;19916;-78
2022/03/28 00:48:14;;;;;;;;;;;;;;;6.05;100.00;102947.63;5077375;28;19930;-76
2022/03/28 00:50:40;;;;;;;;;;;;;;;6.03;100.00;102950.09;5077739;28;19926;-77
2022/03/28 00:53:06;;;;;;;;;;;;;;;5.98;100.00;102955.69;5094896;28;19920;-76
2022/03/28 00:55:31;;;;;;;;;;;;;;;5.87;100.00;102945.19;5094520;28;20336;-77
2022/03/28 00:57:57;;;;;;;;;;;;;;;5.86;100.00;102937.22;5095389;28;19915;-76
2022/03/28 01:00:22;;;;;;;;;;;;;;;5.88;100.00;102938.25;5077843;28;19923;-76
2022/03/28 01:02:49;;;;;;;;;;;;;;;5.81;100.00;102941.09;5110718;28;19916;-76
2022/03/28 01:05:15;;;;;;;;;;;;;;;5.81;100.00;102931.56;5095169;28;19920;-77
2022/03/28 01:07:42;;;;;;;;;;;;;;;5.78;100.00;102927.75;5111981;28;19926;-76
2022/03/28 01:10:09;;;;;;;;;;;;;;;5.71;100.00;102931.53;5094775;28;20382;-77
2022/03/28 01:12:35;;;;;;;;;;;;;;;5.66;100.00;102914.53;5095070;28;19922;-79
2022/03/28 01:15:05;;;;;;;;;;;;;;;5.63;100.00;102924.72;5095517;28;20007;-79
2022/03/28 01:20:17;;;;;;;;;;;;;;;5.63;100.00;102914.25;5113503;28;19927;-78
2022/03/28 01:22:43;;;;;;;;;;;;;;;5.62;100.00;102917.63;5113457;28;19916;-79
2022/03/28 01:25:08;;;;;;;;;;;;;;;5.58;100.00;102922.59;5095156;28;19923;-79
2022/03/28 01:27:37;;;;;;;;;;;;;;;5.56;100.00;102923.22;5113161;28;19916;-79
2022/03/28 01:30:06;;;;;;;;;;;;;;;5.53;100.00;102916.03;5079374;28;20331;-76
2022/03/28 01:32:32;;;;;;;;;;;;;;;5.53;100.00;102915.09;5099489;28;19966;-78
2022/03/28 01:34:57;;;;;;;;;;;;;;;5.54;100.00;102911.72;5098597;28;19920;-79
2022/03/28 01:37:22;;;;;;;;;;;;;;;5.48;100.00;102913.78;5081896;28;19935;-79
2022/03/28 01:39:49;;;;;;;;;;;;;;;5.42;100.00;102902.78;5098769;28;19924;-80
2022/03/28 01:42:15;;;;;;;;;;;;;;;5.41;100.00;102907.09;5082275;28;20272;-77
2022/03/28 01:44:44;;;;;;;;;;;;;;;5.42;100.00;102905.41;5082386;28;20259;-78
2022/03/28 01:47:12;;;;;;;;;;;;;;;5.38;100.00;102901.59;5117635;28;19920;-79
2022/03/28 01:49:37;;;;;;;;;;;;;;;5.34;100.00;102896.88;5116789;28;20331;-79
2022/03/28 01:52:06;;;;;;;;;;;;;;;5.26;100.00;102893.56;5082426;28;19984;-80
2022/03/28 01:54:32;;;;;;;;;;;;;;;5.25;100.00;102896.03;5081987;28;19920;-76
2022/03/28 01:56:59;;;;;;;;;;;;;;;5.21;100.00;102897.47;5098606;28;19969;-77
2022/03/28 01:59:24;;;;;;;;;;;;;;;5.25;100.00;102888.22;5096564;28;19920;-77
2022/03/28 02:01:52;;;;;;;;;;;;;;;5.28;100.00;102884.16;5116282;28;19926;-76
2022/03/28 02:04:39;;;;;;;;;;;;;;;5.29;100.00;102880.78;5115914;28;19915;-76
2022/03/28 02:07:05;;;;;;;;;;;;;;;5.24;100.00;102878.56;5081063;28;19931;-75
2022/03/28 02:09:31;;;;;;;;;;;;;;;5.15;100.00;102882.16;5114739;28;19919;-77
2022/03/28 02:11:58;;;;;;;;;;;;;;;5.17;100.00;102878.00;5115082;28;20022;-76
2022/03/28 02:14:24;;;;;;;;;;;;;;;5.16;100.00;102872.63;5097844;28;19926;-77
2022/03/28 02:16:50;;;;;;;;;;;;;;;5.12;100.00;102873.13;5115238;28;20461;-76
2022/03/28 02:19:16;;;;;;;;;;;;;;;5.10;100.00;102873.00;5097854;28;19951;-76
2022/03/28 02:21:42;;;;;;;;;;;;;;;5.06;100.00;102873.47;5097076;28;19920;-78
2022/03/28 02:24:08;;;;;;;;;;;;;;;5.11;100.00;102863.44;5095688;28;20380;-79
2022/03/28 02:26:33;;;;;;;;;;;;;;;5.12;100.00;102867.91;5097549;28;19926;-76
2022/03/28 02:28:59;;;;;;;;;;;;;;;5.14;100.00;102858.50;5115246;28;19966;-77
2022/03/28 02:31:27;;;;;;;;;;;;;;;5.06;100.00;102859.53;5080669;28;19924;-77
2022/03/28 02:33:53;;;;;;;;;;;;;;;5.01;100.00;102862.63;5098031;28;19980;-79
2022/03/28 02:36:19;;;;;;;;;;;;;;;4.99;100.00;102853.75;5115997;28;19920;-78
2022/03/28 02:38:45;;;;;;;;;;;;;;;4.92;100.00;102853.94;5080094;28;19923;-77
2022/03/28 02:41:11;;;;;;;;;;;;;;;4.95;100.00;102846.41;5080618;28;19958;-76
2022/03/28 02:43:36;;;;;;;;;;;;;;;4.94;100.00;102841.97;5079924;28;19920;-75
2022/03/28 02:46:03;;;;;;;;;;;;;;;4.91;100.00;102851.19;5115225;28;20279;-77
2022/03/28 02:48:28;;;;;;;;;;;;;;;4.88;100.00;102843.09;5097368;28;19923;-76
2022/03/28 02:50:53;;;;;;;;;;;;;;;4.82;100.00;102846.06;5096972;28;19916;-78
2022/03/28 02:53:20;;;;;;;;;;;;;;;4.81;100.00;102837.31;5080015;28;20003;-77
2022/03/28 02:55:47;;;;;;;;;;;;;;;4.78;100.00;102830.91;5115139;28;20283;-76
2022/03/28 02:58:12;;;;;;;;;;;;;;;4.77;100.00;102819.56;5115409;28;20347;-79
2022/03/28 03:00:38;;;;;;;;;;;;;;;4.79;100.00;102823.22;5097251;28;19920;-75
2022/03/28 03:03:05;;;;;;;;;;;;;;;4.75;100.00;102821.09;5096945;28;19920;-77
2022/03/28 03:05:31;;;;;;;;;;;;;;;4.74;100.00;102824.50;5096419;28;19919;-74
2022/03/28 03:07:57;;;;;;;;;;;;;;;4.74;100.00;102826.16;5097553;28;19924;-78
2022/03/28 03:10:22;;;;;;;;;;;;;;;4.72;100.00;102818.19;5097587;28;20007;-78
2022/03/28 03:12:48;;;;;;;;;;;;;;;4.68;100.00;102813.50;5080332;28;20328;-77
2022/03/28 03:15:13;;;;;;;;;;;;;;;4.64;100.00;102812.28;5114887;28;19920;-79
2022/03/28 03:17:39;;;;;;;;;;;;;;;4.63;100.00;102809.53;5096783;28;19912;-79
2022/03/28 03:20:05;;;;;;;;;;;;;;;4.63;100.00;102806.91;5096849;28;19927;-78
2022/03/28 03:22:30;;;;;;;;;;;;;;;4.58;100.00;102806.50;5096696;28;20002;-78
2022/03/28 03:24:58;;;;;;;;;;;;;;;4.57;100.00;102804.69;5079868;28;20057;-78
2022/03/28 03:27:24;;;;;;;;;;;;;;;4.52;100.00;102799.81;5096849;28;20064;-79
2022/03/28 03:29:50;;;;;;;;;;;;;;;4.52;100.00;102803.31;5097001;28;19937;-78
2022/03/28 03:32:18;;;;;;;;;;;;;;;4.52;100.00;102795.50;5096879;28;19920;-77
2022/03/28 03:34:43;;;;;;;;;;;;;;;4.54;100.00;102799.19;5096828;28;20319;-79
2022/03/28 03:37:08;;;;;;;;;;;;;;;4.52;100.00;102795.50;5114412;28;19965;-78
2022/03/28 03:39:38;;;;;;;;;;;;;;;4.48;100.00;102788.19;5096557;28;19978;-79
2022/03/28 03:42:05;;;;;;;;;;;;;;;4.42;100.00;102788.53;5096582;28;19974;-79
2022/03/28 03:44:30;;;;;;;;;;;;;;;4.44;100.00;102780.84;5096579;28;20457;-77
2022/03/28 03:46:57;;;;;;;;;;;;;;;4.43;100.00;102792.97;5080222;28;20010;-79
2022/03/28 03:49:23;;;;;;;;;;;;;;;4.43;100.00;102792.97;5080194;28;19924;-80
2022/03/28 03:51:49;;;;;;;;;;;;;;;4.37;100.00;102794.13;5096258;28;20002;-80
2022/03/28 03:54:16;;;;;;;;;;;;;;;4.34;100.00;102783.41;5080008;28;19958;-79
2022/03/28 03:56:42;;;;;;;;;;;;;;;4.34;100.00;102780.78;5096133;28;19916;-79
2022/03/28 03:59:07;;;;;;;;;;;;;;;4.28;100.00;102771.59;5097154;28;20351;-78
2022/03/28 04:01:33;;;;;;;;;;;;;;;4.27;100.00;102772.41;5095456;28;19976;-79
2022/03/28 04:04:02;;;;;;;;;;;;;;;4.34;100.00;102763.44;5096650;28;19961;-80
2022/03/28 04:06:28;;;;;;;;;;;;;;;4.29;100.00;102763.03;5114537;28;19919;-79
2022/03/28 04:08:53;;;;;;;;;;;;;;;4.29;100.00;102764.72;5096031;28;19920;-79
2022/03/28 04:11:19;;;;;;;;;;;;;;;4.29;100.00;102772.53;5095227;28;20295;-75
2022/03/28 04:13:47;;;;;;;;;;;;;;;4.27;100.00;102761.97;5077817;28;19919;-77
2022/03/28 04:16:12;;;;;;;;;;;;;;;4.22;100.00;102763.22;5092797;28;19920;-77
2022/03/28 04:18:38;;;;;;;;;;;;;;;4.19;100.00;102762.94;5112730;28;20351;-76
2022/03/28 04:21:03;;;;;;;;;;;;;;;4.18;100.00;102765.41;5078339;28;19971;-76
2022/03/28 04:23:31;;;;;;;;;;;;;;;4.13;100.00;102768.53;5113409;28;19923;-77
2022/03/28 04:25:56;;;;;;;;;;;;;;;4.16;100.00;102772.19;5078933;28;19923;-78
2022/03/28 04:28:22;;;;;;;;;;;;;;;4.14;100.00;102769.44;5079081;28;19920;-76
2022/03/28 04:30:51;;;;;;;;;;;;;;;4.10;100.00;102769.91;5078555;28;19922;-77
2022/03/28 04:33:17;;;;;;;;;;;;;;;4.11;100.00;102775.25;5113816;28;20060;-79
2022/03/28 04:35:43;;;;;;;;;;;;;;;4.11;100.00;102770.06;5095264;28;19927;-76
2022/03/28 04:38:09;;;;;;;;;;;;;;;4.08;100.00;102774.06;5094977;28;19916;-76
2022/03/28 04:40:36;;;;;;;;;;;;;;;4.05;100.00;102768.56;5111810;28;20356;-75
2022/03/28 04:43:03;;;;;;;;;;;;;;;4.01;100.00;102771.66;5113022;28;19923;-76
2022/03/28 04:45:30;;;;;;;;;;;;;;;4.01;100.00;102770.00;5112787;28;19937;-77
2022/03/28 04:47:59;;;;;;;;;;;;;;;3.97;100.00;102765.25;5113014;28;19916;-76
2022/03/28 04:50:25;;;;;;;;;;;;;;;3.98;100.00;102760.94;5095392;28;19911;-75
2022/03/28 04:52:51;;;;;;;;;;;;;;;3.95;100.00;102767.72;5077602;28;19924;-78
2022/03/28 04:55:17;;;;;;;;;;;;;;;3.94;100.00;102768.47;5095258;28;19934;-76
2022/03/28 04:57:42;;;;;;;;;;;;;;;3.92;100.00;102754.41;5094997;28;19923;-77
2022/03/28 05:00:09;;;;;;;;;;;;;;;3.86;100.00;102751.22;5113706;28;20348;-77
2022/03/28 05:02:34;;;;;;;;;;;;;;;3.82;100.00;102732.53;5094489;28;20383;-75
2022/03/28 05:05:03;;;;;;;;;;;;;;;3.81;100.00;102731.63;5094520;28;20014;-76
2022/03/28 05:07:30;;;;;;;;;;;;;;;3.83;100.00;102737.00;5117001;28;19920;-73
2022/03/28 05:09:57;;;;;;;;;;;;;;;3.81;100.00;102739.44;5098859;28;19924;-77
2022/03/28 05:12:24;;;;;;;;;;;;;;;3.84;100.00;102747.56;5098410;28;19919;-76
2022/03/28 05:14:50;;;;;;;;;;;;;;;3.80;100.00;102745.44;5098462;28;19973;-76
2022/03/28 05:17:19;;;;;;;;;;;;;;;3.86;100.00;102747.69;5098634;28;20373;-76
2022/03/28 05:19:44;;;;;;;;;;;;;;;3.86;100.00;102751.22;5116942;28;20009;-76
2022/03/28 05:22:12;;;;;;;;;;;;;;;3.88;100.00;102744.44;5116573;28;20057;-76
2022/03/28 05:24:39;;;;;;;;;;;;;;;3.89;100.00;102746.28;5116440;28;19919;-77
2022/03/28 05:27:06;;;;;;;;;;;;;;;3.94;100.00;102741.50;5097978;28;19920;-77
2022/03/28 05:29:31;;;;;;;;;;;;;;;3.90;100.00;102747.19;5098709;28;19924;-75
2022/03/28 05:31:57;;;;;;;;;;;;;;;3.88;100.00;102751.34;5098070;28;20424;-76
2022/03/28 05:34:25;;;;;;;;;;;;;;;3.91;100.00;102749.03;5118461;27;19924;-76
2022/03/28 05:36:51;;;;;;;;;;;;;;;3.94;100.00;102750.22;5114921;28;19924;-77
2022/03/28 05:39:16;;;;;;;;;;;;;;;3.98;100.00;102747.91;5097910;28;19923;-76
2022/03/28 05:41:41;;;;;;;;;;;;;;;4.00;100.00;102743.78;5097355;28;19919;-76
2022/03/28 05:44:10;;;;;;;;;;;;;;;4.07;100.00;102736.66;5098259;28;20010;-77
2022/03/28 05:46:35;;;;;;;;;;;;;;;4.10;100.00;102738.63;5097917;28;19920;-76
2022/03/28 05:49:02;;;;;;;;;;;;;;;4.22;100.00;102734.53;5115381;28;19972;-76
2022/03/28 05:51:28;;;;;;;;;;;;;;;4.43;100.00;102737.28;5097853;28;19923;-76
2022/03/28 05:53:55;;;;;;;;;;;;;;;4.53;100.00;102728.59;5097094;28;19966;-76
2022/03/28 05:56:20;;;;;;;;;;;;;;;4.88;100.00;102723.94;5115214;28;20018;-75
2022/03/28 05:58:45;;;;;;;;;;;;;;;5.20;100.00;102733.69;5080665;28;19955;-76
2022/03/28 06:01:12;;;;;;;;;;;;;;;5.23;100.00;102731.34;5097383;28;20014;-73
2022/03/28 06:03:38;;;;;;;;;;;;;;;5.46;100.00;102730.75;5076656;28;20018;-77
2022/03/28 06:06:04;;;;;;;;;;;;;;;5.77;100.00;102735.09;5077806;28;19920;-77
2022/03/28 06:08:30;;;;;;;;;;;;;;;5.94;100.00;102740.97;5077701;28;19964;-76
2022/03/28 06:10:55;;;;;;;;;;;;;;;6.58;100.00;102739.31;5091775;28;20382;-77
2022/03/28 06:13:22;;;;;;;;;;;;;;;7.17;100.00;102739.72;5096743;28;19920;-75
2022/03/28 06:15:49;;;;;;;;;;;;;;;7.09;100.00;102732.97;5096851;28;19915;-77
2022/03/28 06:18:15;;;;;;;;;;;;;;;6.95;100.00;102725.72;5078011;28;19923;-76
2022/03/28 06:20:40;;;;;;;;;;;;;;;7.00;100.00;102719.13;5096504;28;20055;-76
2022/03/28 06:23:06;;;;;;;;;;;;;;;6.56;100.00;102693.78;5064340;28;19942;-75
2022/03/28 06:25:31;;;;;;;;;;;;;;;6.46;100.00;102676.44;5075321;28;19923;-74
2022/03/28 06:27:57;;;;;;;;;;;;;;;6.76;100.00;102677.09;5093797;28;19923;-75
2022/03/28 06:30:23;;;;;;;;;;;;;;;7.03;100.00;102659.13;5058507;28;19973;-74
2022/03/28 06:32:50;;;;;;;;;;;;;;;7.47;100.00;102653.84;5076103;28;19923;-77
2022/03/28 06:35:15;;;;;;;;;;;;;;;7.85;100.00;102650.59;5064196;28;19966;-76
2022/03/28 06:37:40;;;;;;;;;;;;;;;8.19;100.00;102632.16;5095840;28;19958;-76
2022/03/28 06:40:06;;;;;;;;;;;;;;;8.16;100.00;102625.78;5114773;28;19912;-76
2022/03/28 06:42:32;;;;;;;;;;;;;;;8.23;100.00;102617.53;5096619;28;19963;-76
2022/03/28 06:44:59;;;;;;;;;;;;;;;8.51;100.00;102602.13;5114468;28;19919;-76
2022/03/28 06:47:25;;;;;;;;;;;;;;;8.60;100.00;102600.16;5114555;28;19959;-76
2022/03/28 06:49:50;;;;;;;;;;;;;;;9.14;100.00;102596.06;5095730;28;19977;-77
2022/03/28 06:52:15;;;;;;;;;;;;;;;8.62;100.00;102577.56;5096123;28;19919;-76
2022/03/28 06:54:42;;;;;;;;;;;;;;;8.42;100.00;102562.03;5095682;28;19920;-78
2022/03/28 06:57:07;;;;;;;;;;;;;;;8.36;100.00;102548.47;5076237;28;19920;-77
2022/03/28 06:59:33;;;;;;;;;;;;;;;8.26;100.00;102545.22;5074911;28;19974;-76
2022/03/28 07:01:58;;;;;;;;;;;;;;;7.49;100.00;102538.63;5059063;28;19928;-77
2022/03/28 07:04:26;;;;;;;;;;;;;;;7.52;100.00;102541.47;5093751;28;19912;-77
2022/03/28 07:06:52;;;;;;;;;;;;;;;7.33;100.00;102542.69;5092821;28;19916;-76
2022/03/28 07:09:18;;;;;;;;;;;;;;;7.27;100.00;102547.47;5075941;28;19927;-78
2022/03/28 07:11:45;;;;;;;;;;;;;;;7.66;100.00;102552.97;5095442;28;19930;-76
2022/03/28 07:14:16;;;;;;;;;;;;;;;7.53;100.00;102546.81;5076736;28;20368;-76
2022/03/28 07:16:41;;;;;;;;;;;;;;;7.34;100.00;102552.38;5094741;28;19942;-76
2022/03/28 07:19:06;;;;;;;;;;;;;;;7.49;100.00;102552.63;5095563;28;20352;-77
2022/03/28 07:21:36;;;;;;;;;;;;;;;7.51;100.00;102543.16;5078100;28;19920;-76
2022/03/28 07:24:03;;;;;;;;;;;;;;;7.23;100.00;102542.78;5095721;28;20043;-76
2022/03/28 07:26:29;;;;;;;;;;;;;;;7.61;100.00;102541.25;5078556;28;20018;-77
2022/03/28 07:29:02;;;;;;;;;;;;;;;7.73;100.00;102544.78;5094364;28;20584;-76
2022/03/28 07:31:28;;;;;;;;;;;;;;;7.58;100.00;102547.16;5114100;28;20354;-76
2022/03/28 07:34:29;;;;;;;;;;;;;;;7.82;100.00;102545.47;5094363;28;19936;-76
2022/03/28 07:36:40;;;;;;;;;;;;;;;7.86;100.00;102538.72;5111790;28;20386;-76
2022/03/28 07:39:05;;;;;;;;;;;;;;;8.00;100.00;102532.81;5113170;28;20018;-76
2022/03/28 07:41:30;;;;;;;;;;;;;;;8.74;100.00;102534.56;5112416;28;19916;-78
2022/03/28 07:43:58;;;;;;;;;;;;;;;8.33;100.00;102527.25;5095333;28;19920;-77
2022/03/28 07:46:25;;;;;;;;;;;;;;;8.14;100.00;102512.81;5111118;28;20286;-75
2022/03/28 07:48:50;;;;;;;;;;;;;;;8.25;100.00;102506.63;5090286;28;19931;-77
2022/03/28 07:51:16;;;;;;;;;;;;;;;8.41;100.00;102506.00;5095069;28;19912;-76
2022/03/28 07:53:42;;;;;;;;;;;;;;;8.73;100.00;102502.16;5112300;28;19958;-75
2022/03/28 07:56:07;;;;;;;;;;;;;;;8.87;100.00;102504.81;5094670;28;19912;-75
2022/03/28 07:58:32;;;;;;;;;;;;;;;9.06;100.00;102497.41;5094577;28;20245;-74
2022/03/28 08:00:58;;;;;;;;;;;;;;;9.24;100.00;102495.09;5112890;28;20379;-75
2022/03/28 08:03:25;;;;;;;;;;;;;;;9.44;100.00;102490.28;5094392;28;20042;-75
2022/03/28 08:05:53;;;;;;;;;;;;;;;9.98;100.00;102485.94;5113366;28;19997;-76
2022/03/28 08:08:19;;;;;;;;;;;;;;;10.11;100.00;102480.63;5094648;28;19916;-74
2022/03/28 08:10:44;;;;;;;;;;;;;;;9.63;100.00;102474.00;5086645;28;20374;-76
2022/03/28 08:13:09;;;;;;;;;;;;;;;9.67;100.00;102474.31;5082086;28;20351;-76
2022/03/28 08:15:36;;;;;;;;;;;;;;;10.04;100.00;102476.69;5112284;28;19923;-77
2022/03/28 08:18:02;;;;;;;;;;;;;;;10.48;100.00;102471.53;5094470;28;20326;-77
2022/03/28 08:20:29;;;;;;;;;;;;;;;10.81;100.00;102461.25;5078122;28;19927;-77
2022/03/28 08:22:59;;;;;;;;;;;;;;;10.16;100.00;102463.41;5094195;28;19916;-78
2022/03/28 08:25:24;;;;;;;;;;;;;;;10.61;100.00;102471.47;5095126;28;19926;-78
2022/03/28 08:27:50;;;;;;;;;;;;;;;10.50;100.00;102462.00;5112542;28;20006;-76
2022/03/28 08:30:16;;;;;;;;;;;;;;;10.05;100.00;102468.00;5093827;28;20331;-77
2022/03/28 08:32:42;;;;;;;;;;;;;;;9.53;100.00;102452.34;5074752;28;19917;-76
2022/03/28 08:35:07;;;;;;;;;;;;;;;9.78;100.00;102461.84;5088200;28;19970;-76
2022/03/28 08:37:34;;;;;;;;;;;;;;;9.87;100.00;102462.44;5110425;28;19920;-78
2022/03/28 08:40:00;;;;;;;;;;;;;;;10.40;100.00;102456.16;5093593;28;19919;-78
2022/03/28 08:42:26;;;;;;;;;;;;;;;10.57;100.00;102458.94;5077602;28;20548;-77
2022/03/28 08:44:54;;;;;;;;;;;;;;;10.51;100.00;102448.94;5094106;28;19947;-76
2022/03/28 08:47:21;;;;;;;;;;;;;;;10.03;100.00;102437.13;5094226;28;19952;-76
2022/03/28 08:49:50;;;;;;;;;;;;;;;9.77;100.00;102454.78;5094148;28;19924;-76
2022/03/28 08:52:17;;;;;;;;;;;;;;;9.58;100.00;102446.50;5094285;28;19918;-76
2022/03/28 08:54:44;;;;;;;;;;;;;;;9.96;100.00;102459.50;5094491;28;20003;-77
2022/03/28 08:57:13;;;;;;;;;;;;;;;9.91;100.00;102458.28;5076775;28;20275;-77
2022/03/28 08:59:38;;;;;;;;;;;;;;;10.13;100.00;102457.97;5077642;28;19965;-77
2022/03/28 09:02:04;;;;;;;;;;;;;;;9.80;100.00;102451.44;5092371;28;19920;-78
2022/03/28 09:04:31;;;;;;;;;;;;;;;10.12;100.00;102465.75;5090069;28;19938;-78
2022/03/28 09:06:57;;;;;;;;;;;;;;;10.29;100.00;102456.28;5093742;28;19927;-78
2022/03/28 09:09:24;;;;;;;;;;;;;;;9.88;100.00;102452.81;5094026;28;19915;-78
2022/03/28 09:11:54;;;;;;;;;;;;;;;10.34;100.00;102461.06;5092850;28;20402;-76
2022/03/28 09:14:24;;;;;;;;;;;;;;;10.35;100.00;102462.88;5094222;28;20049;-77
2022/03/28 09:17:04;;;;;;;;;;;;;;;10.48;100.00;102461.91;5093624;28;20325;-77
2022/03/28 09:19:48;;;;;;;;;;;;;;;10.06;100.00;102464.53;5093319;28;19915;-78
2022/03/28 09:22:15;;;;;;;;;;;;;;;10.14;100.00;102462.38;5094040;28;20381;-77
2022/03/28 09:24:42;;;;;;;;;;;;;;;9.63;100.00;102451.25;5093955;28;19916;-77
2022/03/28 09:27:12;;;;;;;;;;;;;;;9.79;100.00;102458.41;5090958;28;19915;-76
2022/03/28 09:29:57;;;;;;;;;;;;;;;10.02;100.00;102462.53;5093713;28;19920;-77
2022/03/28 09:32:27;;;;;;;;;;;;;;;10.57;100.00;102464.22;5111684;28;20416;-77
2022/03/28 09:35:01;;;;;;;;;;;;;;;9.87;100.00;102456.28;5076972;28;19969;-77
2022/03/28 09:37:28;;;;;;;;;;;;;;;10.01;100.00;102467.69;5094080;28;20371;-77
2022/03/28 09:39:53;;;;;;;;;;;;;;;9.99;100.00;102470.22;5093618;28;19915;-77
2022/03/28 09:42:18;;;;;;;;;;;;;;;10.16;100.00;102473.00;5093844;28;20252;-78
2022/03/28 09:44:50;;;;;;;;;;;;;;;10.10;100.00;102463.03;5111608;28;19940;-77
2022/03/28 09:47:20;;;;;;;;;;;;;;;9.73;100.00;102457.13;5111746;28;19923;-77
2022/03/28 09:49:47;;;;;;;;;;;;;;;9.69;100.00;102462.19;5111634;28;19915;-77
2022/03/28 09:52:14;;;;;;;;;;;;;;;9.81;100.00;102458.53;5079513;28;20059;-78
2022/03/28 09:54:49;;;;;;;;;;;;;;;9.81;100.00;102453.25;5114496;28;19916;-77
2022/03/28 09:57:20;;;;;;;;;;;;;;;9.79;100.00;102454.84;5097068;28;19939;-77
2022/03/28 09:59:45;;;;;;;;;;;;;;;9.95;100.00;102462.94;5115548;28;20291;-77
2022/03/28 10:02:19;;;;;;;;;;;;;;;10.29;100.00;102451.94;5098388;28;19916;-77
2022/03/28 10:04:46;;;;;;;;;;;;;;;10.55;100.00;102450.03;5116297;28;19916;-77
2022/03/28 10:07:13;;;;;;;;;;;;;;;10.52;100.00;102445.50;5098084;28;19954;-77
2022/03/28 10:09:39;;;;;;;;;;;;;;;10.73;100.00;102443.25;5097806;28;19916;-77
2022/03/28 10:12:05;;;;;;;;;;;;;;;10.66;100.00;102427.91;5098886;28;20268;-78
2022/03/28 10:14:31;;;;;;;;;;;;;;;10.70;100.00;102432.53;5115770;28;20539;-77
2022/03/28 10:16:56;;;;;;;;;;;;;;;10.57;100.00;102424.72;5081241;28;19920;-78
2022/03/28 10:19:23;;;;;;;;;;;;;;;10.76;100.00;102430.25;5098340;28;19995;-77
2022/03/28 10:21:48;;;;;;;;;;;;;;;10.99;100.00;102417.56;5097686;28;20291;-78
2022/03/28 10:24:18;;;;;;;;;;;;;;;11.09;100.00;102412.03;5116103;28;19915;-77
2022/03/28 10:26:47;;;;;;;;;;;;;;;11.03;100.00;102403.75;5097440;28;19927;-77
2022/03/28 10:29:14;;;;;;;;;;;;;;;10.95;100.00;102402.38;5116436;28;19951;-77
2022/03/28 10:31:55;;;;;;;;;;;;;;;11.12;100.00;102401.66;5097862;28;19961;-77
2022/03/28 10:34:39;;;;;;;;;;;;;;;11.07;100.00;102389.91;5099693;27;19927;-77
2022/03/28 10:37:23;;;;;;;;;;;;;;;11.07;100.00;102394.28;5098038;28;19955;-77
2022/03/28 10:39:49;;;;;;;;;;;;;;;11.07;100.00;102391.66;5097261;28;19915;-77
2022/03/28 10:42:22;;;;;;;;;;;;;;;11.11;100.00;102383.13;5097201;28;19915;-77
2022/03/28 10:45:05;;;;;;;;;;;;;;;11.25;100.00;102379.53;5079633;28;19959;-77
2022/03/28 10:47:50;;;;;;;;;;;;;;;11.70;100.00;102386.41;5097103;28;20417;-78
2022/03/28 10:50:20;;;;;;;;;;;;;;;11.83;100.00;102375.72;5095343;28;19919;-77
2022/03/28 10:53:04;;;;;;;;;;;;;;;11.89;100.00;102372.53;5113973;28;19930;-76
2022/03/28 10:55:37;;;;;;;;;;;;;;;11.57;100.00;102376.91;5097402;28;20010;-76
2022/03/28 10:58:13;;;;;;;;;;;;;;;11.59;100.00;102375.25;5097132;28;19915;-76
2022/03/28 11:00:38;;;;;;;;;;;;;;;11.82;100.00;102356.34;5079645;28;19965;-76
2022/03/28 11:03:04;;;;;;;;;;;;;;;12.01;100.00;102344.19;5096290;28;20325;-76
2022/03/28 11:05:50;;;;;;;;;;;;;;;12.17;100.00;102346.81;5113738;28;19930;-75
2022/03/28 11:08:36;;;;;;;;;;;;;;;12.05;100.00;102334.69;5096603;28;19916;-75
2022/03/28 11:11:20;;;;;;;;;;;;;;;12.03;100.00;102332.88;5096664;28;20014;-77
2022/03/28 11:14:08;;;;;;;;;;;;;;;12.17;100.00;102319.50;5114630;28;19919;-76
2022/03/28 11:16:50;;;;;;;;;;;;;;;12.43;100.00;102312.97;5115099;28;19920;-75
2022/03/28 11:19:21;;;;;;;;;;;;;;;12.39;100.00;102318.91;5096714;28;19920;-76
2022/03/28 11:22:20;;;;;;;;;;;;;;;12.56;100.00;102319.78;5096265;28;19923;-76
2022/03/28 11:24:45;;;;;;;;;;;;;;;12.60;100.00;102315.53;5053859;28;19917;-75
2022/03/28 11:27:12;;;;;;;;;;;;;;;12.55;100.00;102321.50;5096667;28;19916;-76
2022/03/28 11:29:38;;;;;;;;;;;;;;;12.53;100.00;102320.50;5114810;28;20386;-76
2022/03/28 11:32:08;;;;;;;;;;;;;;;12.31;100.00;102312.31;5114597;28;19974;-76
2022/03/28 11:34:33;;;;;;;;;;;;;;;12.53;100.00;102314.31;5096719;28;20083;-77
2022/03/28 11:37:00;;;;;;;;;;;;;;;12.40;100.00;102312.78;5114444;28;19951;-76
2022/03/28 11:39:27;;;;;;;;;;;;;;;12.40;100.00;102310.16;5096390;28;19916;-76
2022/03/28 11:41:53;;;;;;;;;;;;;;;12.62;100.00;102314.81;5096199;28;20299;-77
2022/03/28 11:44:18;;;;;;;;;;;;;;;12.45;100.00;102303.38;5096793;28;19915;-77
2022/03/28 11:46:52;;;;;;;;;;;;;;;12.64;100.00;102302.56;5096096;28;19920;-77
2022/03/28 11:49:18;;;;;;;;;;;;;;;12.97;100.00;102307.72;5096800;28;19923;-77
2022/03/28 11:51:44;;;;;;;;;;;;;;;12.93;100.00;102295.19;5096272;28;19923;-77
2022/03/28 11:54:19;;;;;;;;;;;;;;;12.83;100.00;102295.56;5114508;28;20030;-78
2022/03/28 11:59:30;;;;;;;;;;;;;;;13.14;100.00;102278.56;5114712;28;19923;-78
2022/03/28 12:01:56;;;;;;;;;;;;;;;13.10;100.00;102274.88;5095952;28;19915;-77
2022/03/28 12:04:23;;;;;;;;;;;;;;;13.18;100.00;102268.19;5095075;28;19969;-77
2022/03/28 12:06:50;;;;;;;;;;;;;;;13.05;100.00;102258.78;5112921;28;20413;-76
2022/03/28 12:09:16;;;;;;;;;;;;;;;13.21;100.00;102257.75;5095397;28;19923;-76
2022/03/28 12:11:50;;;;;;;;;;;;;;;13.37;100.00;102256.78;5095126;28;20022;-76
2022/03/28 12:14:16;;;;;;;;;;;;;;;13.39;100.00;102249.84;5078112;28;19931;-76
2022/03/28 12:16:45;;;;;;;;;;;;;;;13.46;100.00;102253.66;5094810;28;19916;-78
2022/03/28 12:19:21;;;;;;;;;;;;;;;13.33;100.00;102243.28;5113725;28;20093;-77
2022/03/28 12:21:47;;;;;;;;;;;;;;;13.43;100.00;102235.91;5112748;28;19931;-77
2022/03/28 12:24:14;;;;;;;;;;;;;;;13.78;100.00;102233.97;5094665;28;20033;-76
2022/03/28 12:26:46;;;;;;;;;;;;;;;13.73;100.00;102234.59;5110625;28;19922;-78
2022/03/28 12:29:12;;;;;;;;;;;;;;;13.69;100.00;102222.97;5095145;28;19920;-77
2022/03/28 12:31:41;;;;;;;;;;;;;;;13.73;100.00;102218.69;5095380;28;20383;-78
2022/03/28 12:34:08;;;;;;;;;;;;;;;13.52;100.00;102216.91;5078956;28;20267;-79
2022/03/28 12:36:35;;;;;;;;;;;;;;;13.48;100.00;102207.00;5078201;28;20425;-77
2022/03/28 12:39:06;;;;;;;;;;;;;;;13.43;100.00;102197.97;5113797;28;19916;-77
2022/03/28 12:41:42;;;;;;;;;;;;;;;13.46;100.00;102190.16;5095430;28;19955;-77